createdAt,value
2024-04-01T00:01:24.435Z,98509.35
2024-04-01T00:09:47.976Z,98517.27
2024-04-01T00:18:10.920Z,98523.63
2024-04-01T00:26:33.733Z,98532.52
2024-04-01T00:35:02.291Z,98531.98
2024-04-01T00:43:26.802Z,98523.70
2024-04-01T00:51:50.568Z,98518.30
2024-04-01T01:00:13.544Z,98517.10
2024-04-01T01:08:36.978Z,98520.34
2024-04-01T01:16:59.889Z,98520.70
2024-04-01T01:25:23.183Z,98513.84
2024-04-01T01:33:45.853Z,98517.84
2024-04-01T01:42:08.448Z,98512.23
2024-04-01T01:50:31.003Z,98521.95
2024-04-01T01:58:53.594Z,98523.77
2024-04-01T02:07:16.147Z,98527.75
2024-04-01T02:15:38.757Z,98537.30
2024-04-01T02:24:01.363Z,98540.90
2024-04-01T02:32:24.002Z,98541.28
2024-04-01T02:40:47.052Z,98528.06
2024-04-01T02:49:10.846Z,98520.04
2024-04-01T02:57:33.757Z,98521.11
2024-04-01T03:05:56.279Z,98520.14
2024-04-01T03:14:18.817Z,98515.27
2024-04-01T03:22:41.507Z,98513.88
2024-04-01T03:31:07.950Z,98523.55
2024-04-01T03:39:33.353Z,98526.64
2024-04-01T03:47:55.840Z,98524.09
2024-04-01T03:56:19.253Z,98527.27
2024-04-01T04:04:41.956Z,98518.23
2024-04-01T04:13:04.788Z,98512.55
2024-04-01T04:21:27.468Z,98517.02
2024-04-01T04:29:50.155Z,98521.92
2024-04-01T04:38:12.825Z,98533.74
2024-04-01T04:46:35.474Z,98535.27
2024-04-01T04:54:58.771Z,98530.39
2024-04-01T05:03:23.304Z,98526.42
2024-04-01T05:11:49.474Z,98519.95
2024-04-01T05:20:15.056Z,98527.84
2024-04-01T05:28:38.436Z,98530.83
2024-04-01T05:37:01.472Z,98549.20
2024-04-01T05:45:25.233Z,98547.41
2024-04-01T05:53:48.870Z,98537.10
2024-04-01T06:02:11.733Z,98513.35
2024-04-01T06:10:37.948Z,98508.95
2024-04-01T06:19:00.559Z,98516.16
2024-04-01T06:27:23.127Z,98508.13
2024-04-01T06:35:45.675Z,98503.68
2024-04-01T06:44:08.216Z,98502.31
2024-04-01T06:52:30.865Z,98522.30
2024-04-01T07:00:53.481Z,98520.48
2024-04-01T07:09:16.060Z,98533.57
2024-04-01T07:17:44.148Z,98533.04
2024-04-01T07:26:06.700Z,98530.50
2024-04-01T07:34:29.553Z,98536.73
2024-04-01T07:42:52.260Z,98539.80
2024-04-01T07:51:15.519Z,98546.23
2024-04-01T07:59:38.203Z,98517.23
2024-04-01T08:08:01.964Z,98491.80
2024-04-01T08:16:25.225Z,98483.60
2024-04-01T08:24:48.185Z,98467.52
2024-04-01T08:33:11.725Z,98461.34
2024-04-01T08:41:41.894Z,98472.48
2024-04-01T08:50:07.027Z,98485.29
2024-04-01T08:58:30.523Z,98487.67
2024-04-01T09:06:53.317Z,98484.35
2024-04-01T09:15:19.120Z,98479.06
2024-04-01T09:23:43.184Z,98477.11
2024-04-01T09:32:07.387Z,98470.86
2024-04-01T09:40:32.036Z,98461.12
2024-04-01T09:48:58.854Z,98460.81
2024-04-01T09:57:56.634Z,98453.95
2024-04-01T10:06:55.717Z,98435.20
2024-04-01T10:15:51.369Z,98432.27
2024-04-01T10:24:32.131Z,98417.59
2024-04-01T10:33:30.223Z,98406.92
2024-04-01T10:42:33.955Z,98406.41
2024-04-01T10:51:37.422Z,98396.00
2024-04-01T11:00:28.961Z,98392.61
2024-04-01T11:09:29.891Z,98389.12
2024-04-01T11:18:19.293Z,98381.63
2024-04-01T11:27:10.005Z,98367.27
2024-04-01T11:35:50.468Z,98359.29
2024-04-01T11:44:29.191Z,98354.17
2024-04-01T11:53:02.373Z,98339.27
2024-04-01T12:01:37.974Z,98331.42
2024-04-01T12:10:19.180Z,98333.30
2024-04-01T12:18:45.029Z,98323.67
2024-04-01T12:27:10.150Z,98319.30
2024-04-01T12:35:37.986Z,98303.53
2024-04-01T12:44:05.467Z,98295.14
2024-04-01T12:52:45.089Z,98279.39
2024-04-01T13:01:13.307Z,98271.73
2024-04-01T13:09:47.462Z,98269.11
2024-04-01T13:18:24.022Z,98268.95
2024-04-01T13:27:10.576Z,98269.92
2024-04-01T13:36:11.394Z,98259.06
2024-04-01T13:45:06.413Z,98253.67
2024-04-01T13:53:37.815Z,98251.67
2024-04-01T14:02:35.487Z,98252.06
2024-04-01T14:11:15.072Z,98238.65
2024-04-01T14:19:58.495Z,98225.77
2024-04-01T14:28:24.917Z,98215.91
2024-04-01T14:36:49.354Z,98209.05
2024-04-01T14:45:13.883Z,98203.96
2024-04-01T14:53:38.252Z,98188.71
2024-04-01T15:02:01.961Z,98180.47
2024-04-01T15:10:27.259Z,98169.17
2024-04-01T15:18:52.807Z,98167.96
2024-04-01T15:27:17.224Z,98159.67
2024-04-01T15:35:43.810Z,98147.48
2024-04-01T15:44:09.044Z,98126.98
2024-04-01T15:52:36.538Z,98115.11
2024-04-01T16:01:00.851Z,98109.70
2024-04-01T16:09:27.460Z,98104.77
2024-04-01T16:17:52.137Z,98095.73
2024-04-01T16:26:18.195Z,98095.36
2024-04-01T16:34:45.658Z,98094.11
2024-04-01T16:43:08.690Z,98086.25
2024-04-01T16:51:34.726Z,98076.19
2024-04-01T16:59:59.545Z,98061.44
2024-04-01T17:08:24.917Z,98042.84
2024-04-01T17:16:51.208Z,98036.75
2024-04-01T17:25:18.754Z,98037.55
2024-04-01T17:33:44.170Z,98036.02
2024-04-01T17:42:08.920Z,98043.98
2024-04-01T17:50:32.206Z,98055.14
2024-04-01T17:58:55.974Z,98057.35
2024-04-01T18:07:20.273Z,98064.91
2024-04-01T18:15:42.965Z,98072.06
2024-04-01T18:24:07.724Z,98079.64
2024-04-01T18:32:31.559Z,98081.55
2024-04-01T18:40:54.811Z,98081.29
2024-04-01T18:49:19.042Z,98083.53
2024-04-01T18:57:45.221Z,98084.39
2024-04-01T19:06:08.039Z,98083.77
2024-04-01T19:14:31.732Z,98085.57
2024-04-01T19:22:55.752Z,98084.45
2024-04-01T19:31:19.707Z,98081.53
2024-04-01T19:39:44.458Z,98076.04
2024-04-01T19:48:08.757Z,98068.04
2024-04-01T19:56:34.578Z,98072.98
2024-04-01T20:05:01.118Z,98070.03
2024-04-01T20:13:25.440Z,98062.58
2024-04-01T20:21:50.014Z,98059.53
2024-04-01T20:30:33.505Z,98058.32
2024-04-01T20:38:57.209Z,98055.02
2024-04-01T20:47:24.416Z,98057.11
2024-04-01T20:55:47.670Z,98060.17
2024-04-01T21:04:18.863Z,98049.51
2024-04-01T21:12:43.508Z,98047.02
2024-04-01T21:21:11.792Z,98047.78
2024-04-01T21:29:34.864Z,98033.05
2024-04-01T21:37:57.396Z,98029.45
2024-04-01T21:46:20.095Z,98031.81
2024-04-01T21:54:43.266Z,98020.23
2024-04-01T22:03:06.928Z,98021.83
2024-04-01T22:11:29.822Z,98023.40
2024-04-01T22:19:52.474Z,98019.13
2024-04-01T22:28:15.045Z,98024.80
2024-04-01T22:36:38.271Z,98017.54
2024-04-01T22:45:00.784Z,98009.67
2024-04-01T22:53:23.307Z,98005.47
2024-04-01T23:01:46.101Z,97997.80
2024-04-01T23:10:08.822Z,97991.98
2024-04-01T23:18:31.526Z,97983.36
2024-04-01T23:26:54.198Z,97971.01
2024-04-01T23:35:16.917Z,97961.20
2024-04-01T23:43:39.502Z,97950.15
2024-04-01T23:52:04.354Z,97943.80
